Time;durP1;ratioP1;P1;durP2;ratioP2;P2;SDS_P1;SDS_P2;PMS_P1;PMS_P2;Temp;Humidity;BMP_temperature;BMP_pressure;BME280_temperature;BME280_humidity;BME280_pressure;Samples;Min_cycle;Max_cycle;Signal;HPM_P1;HPM_P2
2021/01/09 00:00:55;;;;;;;0.50;0.50;;;2.20;99.90;;;;;;4444727;32;20089;-57
2021/01/09 00:03:21;;;;;;;39.35;1.27;;;2.10;99.90;;;;;;4445944;32;20575;-58
2021/01/09 00:05:46;;;;;;;0.50;0.50;;;2.20;99.90;;;;;;4443553;32;20104;-57
2021/01/09 00:08:12;;;;;;;0.40;0.40;;;2.20;99.90;;;;;;4429959;32;20483;-56
2021/01/09 00:10:38;;;;;;;0.52;0.45;;;2.10;99.90;;;;;;4429830;32;20060;-56
2021/01/09 00:13:04;;;;;;;43.72;1.95;;;2.10;99.90;;;;;;4445679;32;20409;-54
2021/01/09 00:15:29;;;;;;;0.50;0.50;;;2.10;99.90;;;;;;4445453;32;20079;-54
2021/01/09 00:17:54;;;;;;;0.70;0.70;;;2.10;99.90;;;;;;4444276;32;20578;-55
2021/01/09 00:20:21;;;;;;;0.40;0.40;;;2.10;99.90;;;;;;4444486;32;20414;-58
2021/01/09 00:22:47;;;;;;;0.50;0.50;;;2.10;99.90;;;;;;4445039;32;20073;-54
2021/01/09 00:25:16;;;;;;;0.45;0.45;;;2.10;99.90;;;;;;4444934;32;20065;-58
2021/01/09 00:27:42;;;;;;;0.45;0.45;;;2.10;99.90;;;;;;4444344;32;20064;-57
2021/01/09 00:30:08;;;;;;;0.40;0.40;;;2.20;99.90;;;;;;4446046;32;20130;-57
2021/01/09 00:32:34;;;;;;;0.57;0.57;;;2.20;99.90;;;;;;4445741;32;20556;-58
2021/01/09 00:35:00;;;;;;;0.40;0.40;;;2.20;99.90;;;;;;4445697;32;20078;-56
2021/01/09 00:37:26;;;;;;;1.87;0.65;;;2.20;99.90;;;;;;4444436;32;20068;-57
2021/01/09 00:39:51;;;;;;;0.40;0.40;;;2.30;99.90;;;;;;4445034;32;20116;-57
2021/01/09 00:42:17;;;;;;;0.90;0.77;;;2.20;99.90;;;;;;4445149;32;20077;-57
2021/01/09 00:44:42;;;;;;;0.65;0.65;;;2.20;99.90;;;;;;4445446;32;20073;-57
2021/01/09 00:47:08;;;;;;;0.50;0.50;;;2.10;99.90;;;;;;4444982;32;20138;-58
2021/01/09 00:49:33;;;;;;;1.45;0.85;;;2.30;99.90;;;;;;4444264;32;20064;-53
2021/01/09 00:51:59;;;;;;;0.50;0.50;;;2.20;99.90;;;;;;4443368;32;20435;-56
2021/01/09 00:54:24;;;;;;;0.43;0.43;;;2.10;99.90;;;;;;4443302;32;20090;-53
2021/01/09 00:56:53;;;;;;;0.40;0.40;;;2.10;99.90;;;;;;4444688;32;20072;-57
2021/01/09 00:59:19;;;;;;;0.40;0.40;;;2.10;99.90;;;;;;4418204;32;20379;-54
2021/01/09 01:01:45;;;;;;;2.10;0.65;;;2.10;99.90;;;;;;4444020;32;20061;-58
2021/01/09 01:04:10;;;;;;;1.05;0.95;;;2.10;99.90;;;;;;4444501;32;20077;-53
2021/01/09 01:06:36;;;;;;;0.40;0.40;;;2.30;99.90;;;;;;4437889;32;20124;-54
2021/01/09 01:09:02;;;;;;;1.15;0.90;;;2.30;99.90;;;;;;4428759;32;20471;-58
2021/01/09 01:11:29;;;;;;;1.77;0.77;;;2.30;99.90;;;;;;4427628;32;20145;-57
2021/01/09 01:13:56;;;;;;;12.98;1.23;;;2.40;99.90;;;;;;4428747;32;20417;-58
2021/01/09 01:16:23;;;;;;;2.90;1.10;;;2.30;99.90;;;;;;4429619;32;20065;-58
2021/01/09 01:18:49;;;;;;;0.50;0.50;;;2.20;99.90;;;;;;4428748;32;20085;-57
2021/01/09 01:21:14;;;;;;;0.47;0.47;;;2.20;99.90;;;;;;4414755;32;20558;-58
2021/01/09 01:23:40;;;;;;;0.35;0.35;;;2.20;99.90;;;;;;4429367;32;20065;-57
2021/01/09 01:26:08;;;;;;;0.50;0.50;;;2.20;99.90;;;;;;4429731;32;20060;-58
2021/01/09 01:28:33;;;;;;;0.60;0.60;;;2.30;99.90;;;;;;4430028;32;20069;-55
2021/01/09 01:30:59;;;;;;;0.37;0.37;;;2.30;99.90;;;;;;4429319;32;20404;-57
2021/01/09 01:33:24;;;;;;;1.00;0.93;;;2.30;99.90;;;;;;4429966;32;20061;-56
2021/01/09 01:35:50;;;;;;;0.47;0.47;;;2.30;99.90;;;;;;4429379;32;20088;-56
2021/01/09 01:38:15;;;;;;;0.47;0.47;;;2.30;99.90;;;;;;4429813;32;20424;-58
2021/01/09 01:40:41;;;;;;;0.60;0.60;;;2.20;99.90;;;;;;4429236;32;20134;-54
2021/01/09 01:43:10;;;;;;;0.82;0.82;;;2.30;99.90;;;;;;4428866;32;20074;-56
2021/01/09 01:45:36;;;;;;;0.77;0.77;;;2.30;99.90;;;;;;4428451;32;20065;-56
2021/01/09 01:48:03;;;;;;;0.40;0.40;;;2.40;99.90;;;;;;4429581;32;20193;-54
2021/01/09 01:50:29;;;;;;;0.40;0.40;;;2.30;99.90;;;;;;4429599;32;20069;-55
2021/01/09 01:52:54;;;;;;;0.50;0.50;;;2.30;99.90;;;;;;4430324;32;20123;-55
2021/01/09 01:55:20;;;;;;;0.75;0.75;;;2.20;99.90;;;;;;4429746;32;20081;-57
2021/01/09 01:57:46;;;;;;;2.00;1.25;;;2.10;99.90;;;;;;4428805;32;20076;-58
2021/01/09 02:00:12;;;;;;;0.60;0.60;;;2.00;99.90;;;;;;4429813;32;20065;-54
2021/01/09 02:02:37;;;;;;;0.30;0.30;;;2.10;99.90;;;;;;4430751;32;20058;-56
2021/01/09 02:05:03;;;;;;;0.90;0.77;;;2.00;99.90;;;;;;4432137;32;20064;-54
2021/01/09 02:07:36;;;;;;;0.40;0.40;;;2.00;99.90;;;;;;4431119;32;20087;-56
2021/01/09 02:10:03;;;;;;;0.85;0.85;;;2.10;99.90;;;;;;4430379;32;20128;-54
2021/01/09 02:12:41;;;;;;;0.37;0.37;;;2.10;99.90;;;;;;4444775;32;20447;-56
2021/01/09 02:15:07;;;;;;;0.60;0.60;;;2.10;99.90;;;;;;4445520;32;20493;-53
2021/01/09 02:17:35;;;;;;;3.30;0.73;;;2.10;99.90;;;;;;4446941;32;20122;-55
2021/01/09 02:20:03;;;;;;;0.30;0.30;;;2.10;99.90;;;;;;4446073;32;20130;-56
2021/01/09 02:22:33;;;;;;;0.40;0.40;;;2.00;99.90;;;;;;4447154;32;20111;-54
2021/01/09 02:24:58;;;;;;;0.60;0.60;;;2.10;99.90;;;;;;4445749;32;20068;-57
2021/01/09 02:27:24;;;;;;;0.68;0.68;;;2.10;99.90;;;;;;4446162;32;20069;-56
2021/01/09 02:30:12;;;;;;;0.62;0.60;;;2.20;99.90;;;;;;4447172;32;20486;-53
2021/01/09 02:33:00;;;;;;;0.75;0.75;;;2.20;99.90;;;;;;4446346;32;20057;-57
2021/01/09 02:35:27;;;;;;;0.47;0.47;;;2.10;99.90;;;;;;4436234;32;20081;-54
2021/01/09 02:37:54;;;;;;;0.65;0.65;;;2.10;99.90;;;;;;4445447;32;20077;-57
2021/01/09 02:40:20;;;;;;;0.30;0.30;;;2.10;99.90;;;;;;4444337;32;20510;-58
2021/01/09 02:42:45;;;;;;;0.40;0.40;;;2.20;99.90;;;;;;4432001;32;20111;-57
2021/01/09 02:45:11;;;;;;;0.37;0.37;;;2.20;99.90;;;;;;4446811;32;20065;-58
2021/01/09 02:47:37;;;;;;;0.90;0.90;;;2.20;99.90;;;;;;4447454;32;20080;-55
2021/01/09 02:50:04;;;;;;;1.12;0.55;;;2.30;99.90;;;;;;4446031;32;20164;-58
2021/01/09 02:52:29;;;;;;;0.45;0.45;;;2.30;99.90;;;;;;4446892;32;20467;-57
2021/01/09 02:54:55;;;;;;;0.40;0.40;;;2.20;99.90;;;;;;4446235;32;20062;-58
2021/01/09 02:57:20;;;;;;;0.50;0.50;;;2.20;99.90;;;;;;4446628;32;20169;-58
2021/01/09 02:59:46;;;;;;;0.50;0.45;;;2.30;99.90;;;;;;4446124;32;20419;-55
2021/01/09 03:02:12;;;;;;;1.65;0.60;;;2.30;99.90;;;;;;4446423;32;20514;-57
2021/01/09 03:04:37;;;;;;;0.40;0.40;;;2.20;99.90;;;;;;4446674;32;20061;-57
2021/01/09 03:07:02;;;;;;;0.37;0.37;;;2.20;99.90;;;;;;4437132;32;20141;-57
2021/01/09 03:09:28;;;;;;;0.50;0.50;;;2.20;99.90;;;;;;4429640;32;20455;-57
2021/01/09 03:11:54;;;;;;;0.50;0.50;;;2.20;99.90;;;;;;4440400;32;20081;-58
2021/01/09 03:14:19;;;;;;;0.57;0.57;;;2.10;99.90;;;;;;4444966;32;20519;-57
2021/01/09 03:16:45;;;;;;;2.08;0.50;;;2.00;99.90;;;;;;4445525;32;20123;-55
2021/01/09 03:19:10;;;;;;;0.30;0.30;;;2.00;99.90;;;;;;4446450;32;20072;-57
2021/01/09 03:21:36;;;;;;;0.30;0.30;;;2.00;99.90;;;;;;4446161;32;20518;-58
2021/01/09 03:24:01;;;;;;;2.72;0.98;;;2.10;99.90;;;;;;4445959;32;20074;-56
2021/01/09 03:26:27;;;;;;;0.60;0.60;;;2.20;99.90;;;;;;4445651;32;20081;-57
2021/01/09 03:28:52;;;;;;;0.50;0.50;;;2.20;99.90;;;;;;4446235;32;20474;-56
2021/01/09 03:31:18;;;;;;;2.45;0.70;;;2.30;99.90;;;;;;4445399;32;20111;-56
2021/01/09 03:33:43;;;;;;;0.30;0.30;;;2.30;99.90;;;;;;4446735;32;20475;-56
2021/01/09 03:36:09;;;;;;;0.40;0.40;;;2.30;99.90;;;;;;4446531;32;20396;-56
2021/01/09 03:38:35;;;;;;;0.30;0.30;;;2.40;99.90;;;;;;4446165;32;20064;-55
2021/01/09 03:41:00;;;;;;;0.30;0.30;;;2.40;99.90;;;;;;4445969;32;20081;-54
2021/01/09 03:43:26;;;;;;;0.80;0.68;;;2.30;99.90;;;;;;4445505;32;20122;-57
2021/01/09 03:45:51;;;;;;;1.00;0.95;;;2.30;99.90;;;;;;4445058;32;20116;-55
2021/01/09 03:48:17;;;;;;;1.20;0.45;;;2.30;99.90;;;;;;4445538;32;20119;-58
2021/01/09 03:50:42;;;;;;;1.62;0.65;;;2.20;99.90;;;;;;4445629;32;20515;-57
2021/01/09 03:53:08;;;;;;;0.30;0.30;;;2.30;99.90;;;;;;4446112;32;20068;-58
2021/01/09 03:55:33;;;;;;;0.80;0.50;;;2.30;99.90;;;;;;4443687;32;20077;-57
2021/01/09 03:57:58;;;;;;;0.35;0.35;;;2.30;99.90;;;;;;4445397;32;20131;-57
2021/01/09 04:00:24;;;;;;;0.37;0.37;;;2.30;99.90;;;;;;4445196;32;20667;-56
2021/01/09 04:02:50;;;;;;;0.30;0.30;;;2.20;99.90;;;;;;4445933;32;20067;-58
2021/01/09 04:05:15;;;;;;;0.55;0.55;;;2.10;99.90;;;;;;4445367;32;20522;-53
2021/01/09 04:07:40;;;;;;;0.32;0.32;;;2.00;99.90;;;;;;4432596;32;20098;-57
2021/01/09 04:10:06;;;;;;;0.32;0.32;;;1.90;99.90;;;;;;4429390;32;20077;-57
2021/01/09 04:12:32;;;;;;;0.30;0.30;;;2.00;99.90;;;;;;4443505;32;20077;-53
2021/01/09 04:14:57;;;;;;;0.40;0.40;;;2.10;99.90;;;;;;4444658;32;20443;-55
2021/01/09 04:17:23;;;;;;;0.30;0.30;;;2.20;99.90;;;;;;4445011;32;20072;-58
2021/01/09 04:19:49;;;;;;;0.40;0.40;;;2.10;99.90;;;;;;4444832;32;20061;-54
2021/01/09 04:22:14;;;;;;;0.32;0.32;;;2.20;99.90;;;;;;4443509;32;20089;-56
2021/01/09 04:24:40;;;;;;;0.50;0.50;;;2.20;99.90;;;;;;4445123;32;20060;-58
2021/01/09 04:27:05;;;;;;;1.25;0.77;;;2.20;99.90;;;;;;4444414;32;20227;-56
2021/01/09 04:29:31;;;;;;;0.40;0.40;;;2.10;99.90;;;;;;4445446;32;20062;-56
2021/01/09 04:31:57;;;;;;;0.50;0.50;;;2.10;99.90;;;;;;4445778;32;20105;-57
2021/01/09 04:34:24;;;;;;;0.80;0.80;;;2.20;99.90;;;;;;4445398;32;20065;-57
2021/01/09 04:36:50;;;;;;;0.90;0.90;;;2.20;99.90;;;;;;4443836;32;20064;-57
2021/01/09 04:39:16;;;;;;;0.60;0.60;;;2.20;99.90;;;;;;4444308;32;20073;-55
2021/01/09 04:41:42;;;;;;;0.93;0.85;;;2.10;99.90;;;;;;4444777;32;20134;-57
2021/01/09 04:44:09;;;;;;;0.30;0.30;;;2.10;99.90;;;;;;4445781;32;20471;-57
2021/01/09 04:46:52;;;;;;;0.50;0.50;;;2.10;99.90;;;;;;4445211;32;20056;-55
2021/01/09 04:49:19;;;;;;;0.40;0.40;;;2.10;99.90;;;;;;4444315;32;20073;-59
2021/01/09 04:51:46;;;;;;;0.30;0.30;;;2.10;99.90;;;;;;4444982;32;20089;-53
2021/01/09 04:54:14;;;;;;;0.30;0.30;;;2.10;99.90;;;;;;4444325;32;20100;-53
2021/01/09 04:56:42;;;;;;;0.75;0.70;;;2.20;99.90;;;;;;4430902;32;20438;-58
2021/01/09 04:59:08;;;;;;;0.30;0.30;;;2.20;99.90;;;;;;4443793;32;20509;-57
2021/01/09 05:01:34;;;;;;;0.65;0.65;;;2.20;99.90;;;;;;4445050;32;20081;-57
2021/01/09 05:03:59;;;;;;;0.50;0.50;;;2.20;99.90;;;;;;4443894;32;20077;-57
2021/01/09 05:06:25;;;;;;;0.35;0.35;;;2.20;99.90;;;;;;4439003;32;20065;-56
2021/01/09 05:08:50;;;;;;;0.30;0.30;;;2.20;99.90;;;;;;4428174;32;20070;-57
2021/01/09 05:11:17;;;;;;;0.40;0.40;;;2.30;99.90;;;;;;4434053;32;20073;-57
2021/01/09 05:13:45;;;;;;;0.40;0.40;;;2.30;99.90;;;;;;4430923;32;20510;-56
2021/01/09 05:16:11;;;;;;;0.50;0.50;;;2.30;99.90;;;;;;4443446;32;20124;-58
2021/01/09 05:18:38;;;;;;;0.30;0.30;;;2.30;99.90;;;;;;4443742;32;20073;-54
2021/01/09 05:21:06;;;;;;;0.30;0.30;;;2.20;99.90;;;;;;4445026;32;20061;-58
2021/01/09 05:23:49;;;;;;;0.40;0.40;;;2.20;99.90;;;;;;4431297;32;20400;-57
2021/01/09 05:26:15;;;;;;;0.32;0.32;;;2.10;99.90;;;;;;4444072;32;20072;-56
2021/01/09 05:28:44;;;;;;;0.40;0.40;;;2.20;99.90;;;;;;4444216;32;20482;-58
2021/01/09 05:31:09;;;;;;;0.30;0.30;;;2.30;99.90;;;;;;4444668;32;20069;-57
2021/01/09 05:33:35;;;;;;;0.40;0.40;;;2.20;99.90;;;;;;4443172;32;20420;-55
2021/01/09 05:36:02;;;;;;;0.40;0.40;;;2.20;99.90;;;;;;4444515;32;20065;-54
2021/01/09 05:38:35;;;;;;;0.37;0.37;;;2.20;99.90;;;;;;4447226;32;20128;-54
2021/01/09 05:41:05;;;;;;;0.30;0.30;;;2.20;99.90;;;;;;4447832;32;20514;-54
2021/01/09 05:43:30;;;;;;;0.60;0.60;;;2.20;99.90;;;;;;4446746;32;20119;-54
2021/01/09 05:45:57;;;;;;;0.52;0.45;;;2.20;99.90;;;;;;4446920;32;20454;-56
2021/01/09 05:48:23;;;;;;;0.30;0.30;;;2.20;99.90;;;;;;4446089;32;20073;-54
2021/01/09 05:50:48;;;;;;;0.30;0.30;;;2.30;99.90;;;;;;4446446;32;20064;-57
2021/01/09 05:53:42;;;;;;;1.65;0.77;;;2.30;99.90;;;;;;4446399;32;20375;-57
2021/01/09 05:56:09;;;;;;;0.40;0.40;;;2.40;99.90;;;;;;4436421;32;20074;-57
2021/01/09 05:58:35;;;;;;;0.30;0.30;;;2.40;99.90;;;;;;4448278;32;20056;-58
2021/01/09 06:01:09;;;;;;;0.30;0.30;;;2.30;99.90;;;;;;4447406;32;20069;-58
2021/01/09 06:03:38;;;;;;;0.40;0.40;;;2.30;99.90;;;;;;4445410;32;20053;-58
2021/01/09 06:06:21;;;;;;;0.30;0.30;;;2.30;99.90;;;;;;4444033;32;20111;-58
2021/01/09 06:08:54;;;;;;;0.30;0.30;;;2.40;99.90;;;;;;4432067;32;20061;-57
2021/01/09 06:11:29;;;;;;;0.60;0.60;;;2.30;99.90;;;;;;4437449;32;20068;-56
2021/01/09 06:13:57;;;;;;;0.40;0.40;;;2.30;99.90;;;;;;4447808;32;20397;-57
2021/01/09 06:16:24;;;;;;;0.40;0.40;;;2.30;99.90;;;;;;4446603;32;20065;-58
2021/01/09 06:18:50;;;;;;;0.40;0.40;;;2.30;99.90;;;;;;4447522;32;20538;-58
2021/01/09 06:21:17;;;;;;;0.40;0.40;;;2.30;99.90;;;;;;4447385;32;20065;-58
2021/01/09 06:23:42;;;;;;;0.62;0.60;;;2.40;99.90;;;;;;4446909;32;20486;-58
2021/01/09 06:26:10;;;;;;;0.40;0.40;;;2.30;99.90;;;;;;4447253;32;20085;-58
2021/01/09 06:28:37;;;;;;;0.30;0.30;;;2.40;99.90;;;;;;4446129;32;20395;-57
2021/01/09 06:31:07;;;;;;;0.40;0.40;;;2.30;99.90;;;;;;4445660;32;20076;-57
2021/01/09 06:33:37;;;;;;;0.60;0.60;;;2.30;99.90;;;;;;4447063;32;20501;-54
2021/01/09 06:36:04;;;;;;;0.50;0.50;;;2.40;99.90;;;;;;4445953;32;20119;-57
2021/01/09 06:38:29;;;;;;;0.40;0.40;;;2.30;99.90;;;;;;4446734;32;20057;-57
2021/01/09 06:40:55;;;;;;;0.65;0.65;;;2.40;99.90;;;;;;4445935;32;20085;-58
2021/01/09 06:43:21;;;;;;;0.37;0.37;;;2.30;99.90;;;;;;4447004;32;20073;-55
2021/01/09 06:45:48;;;;;;;0.45;0.45;;;2.20;99.90;;;;;;4447303;32;20412;-57
2021/01/09 06:48:15;;;;;;;0.57;0.57;;;2.20;99.90;;;;;;4431932;32;20506;-56
2021/01/09 06:50:41;;;;;;;0.30;0.30;;;2.10;99.90;;;;;;4444655;32;20069;-53
2021/01/09 06:53:12;;;;;;;0.52;0.52;;;2.20;99.90;;;;;;4446616;32;20173;-53
2021/01/09 06:55:40;;;;;;;0.30;0.30;;;2.30;99.90;;;;;;4446988;32;20086;-57
2021/01/09 06:58:08;;;;;;;0.30;0.30;;;2.30;99.90;;;;;;4447368;32;20064;-58
2021/01/09 07:00:35;;;;;;;0.43;0.43;;;2.40;99.90;;;;;;4445566;32;20133;-58
2021/01/09 07:03:18;;;;;;;0.30;0.30;;;2.30;99.90;;;;;;4445774;32;20115;-56
2021/01/09 07:05:45;;;;;;;0.52;0.52;;;2.30;99.90;;;;;;4445273;32;20073;-58
2021/01/09 07:08:19;;;;;;;0.50;0.50;;;2.30;99.90;;;;;;4445727;32;20069;-56
2021/01/09 07:10:49;;;;;;;1.12;0.62;;;2.30;99.90;;;;;;4443090;32;20092;-57
2021/01/09 07:13:16;;;;;;;0.40;0.40;;;2.30;99.90;;;;;;4430304;32;20116;-58
2021/01/09 07:15:41;;;;;;;0.30;0.30;;;2.30;99.90;;;;;;4436091;32;20085;-57
2021/01/09 07:18:08;;;;;;;0.40;0.40;;;2.30;99.90;;;;;;4447083;32;20503;-54
2021/01/09 07:20:37;;;;;;;0.40;0.40;;;2.30;99.90;;;;;;4446095;32;20061;-58
2021/01/09 07:23:05;;;;;;;0.50;0.50;;;2.20;99.90;;;;;;4444827;32;20514;-57
2021/01/09 07:25:38;;;;;;;0.30;0.30;;;2.30;99.90;;;;;;4446519;32;20084;-56
2021/01/09 07:28:13;;;;;;;0.40;0.40;;;2.30;99.90;;;;;;4446264;32;20061;-54
2021/01/09 07:30:40;;;;;;;0.30;0.30;;;2.30;99.90;;;;;;4445367;32;20448;-57
2021/01/09 07:33:09;;;;;;;0.45;0.45;;;2.30;99.90;;;;;;4446894;32;20440;-57
2021/01/09 07:35:37;;;;;;;0.40;0.40;;;2.20;99.90;;;;;;4446502;32;20117;-57
2021/01/09 07:38:05;;;;;;;0.52;0.52;;;2.30;99.90;;;;;;4446583;32;20575;-59
2021/01/09 07:40:33;;;;;;;0.40;0.40;;;2.40;99.90;;;;;;4444813;32;20466;-57
2021/01/09 07:43:00;;;;;;;0.30;0.30;;;2.30;99.90;;;;;;4432657;32;20120;-58
2021/01/09 07:45:31;;;;;;;0.40;0.40;;;2.40;99.90;;;;;;4432954;32;20064;-57
2021/01/09 07:47:57;;;;;;;1.65;0.88;;;2.40;99.90;;;;;;4432826;32;20189;-56
2021/01/09 07:50:23;;;;;;;0.35;0.35;;;2.30;99.90;;;;;;4444564;32;20065;-56
2021/01/09 07:53:04;;;;;;;0.30;0.30;;;2.40;99.90;;;;;;4446012;32;20069;-54
2021/01/09 07:55:44;;;;;;;0.30;0.30;;;2.40;99.90;;;;;;4445978;32;20123;-55
2021/01/09 07:58:11;;;;;;;0.68;0.68;;;2.40;99.90;;;;;;4445830;32;20519;-58
2021/01/09 08:00:40;;;;;;;0.45;0.45;;;2.40;99.90;;;;;;4446076;32;20072;-54
2021/01/09 08:03:06;;;;;;;0.30;0.30;;;2.40;99.90;;;;;;4446181;32;20065;-53
2021/01/09 08:05:31;;;;;;;2.37;0.90;;;2.50;99.90;;;;;;4444884;32;20201;-58
2021/01/09 08:07:57;;;;;;;0.30;0.30;;;2.40;99.90;;;;;;4430785;32;20424;-57
2021/01/09 08:10:28;;;;;;;0.35;0.35;;;2.50;99.90;;;;;;4428900;32;20077;-56
2021/01/09 08:13:04;;;;;;;0.30;0.30;;;2.30;99.90;;;;;;4430128;32;20065;-56
2021/01/09 08:15:31;;;;;;;0.30;0.30;;;2.30;99.90;;;;;;4428887;32;20073;-57
2021/01/09 08:18:02;;;;;;;0.32;0.32;;;2.30;99.90;;;;;;4428167;32;20074;-54
2021/01/09 08:20:28;;;;;;;1.85;0.60;;;2.30;99.90;;;;;;4429925;32;20432;-57
2021/01/09 08:22:58;;;;;;;0.30;0.30;;;2.30;99.90;;;;;;4429951;32;20074;-57
2021/01/09 08:25:27;;;;;;;0.40;0.40;;;2.30;99.90;;;;;;4429165;32;20498;-58
2021/01/09 08:27:55;;;;;;;1.05;1.00;;;2.40;99.90;;;;;;4429807;32;20160;-56
2021/01/09 08:30:23;;;;;;;0.50;0.50;;;2.40;99.90;;;;;;4428767;32;20073;-56
2021/01/09 08:32:49;;;;;;;0.50;0.50;;;2.40;99.90;;;;;;4428385;32;20420;-58
2021/01/09 08:35:15;;;;;;;0.60;0.60;;;2.40;99.90;;;;;;4429620;32;20077;-56
2021/01/09 08:37:42;;;;;;;0.30;0.30;;;2.40;99.90;;;;;;4429588;32;20065;-55
2021/01/09 08:40:13;;;;;;;0.40;0.40;;;2.40;99.90;;;;;;4428211;32;20073;-54
2021/01/09 08:42:52;;;;;;;0.35;0.35;;;2.40;99.90;;;;;;4426832;32;93775;-57
2021/01/09 08:45:17;;;;;;;0.30;0.30;;;2.40;99.90;;;;;;4428045;32;20065;-56
2021/01/09 08:47:44;;;;;;;0.62;0.62;;;2.50;99.90;;;;;;4429241;32;20505;-55
2021/01/09 08:50:12;;;;;;;0.32;0.32;;;2.50;99.90;;;;;;4430107;32;20527;-53
2021/01/09 08:52:43;;;;;;;0.40;0.40;;;2.40;99.90;;;;;;4429595;32;20065;-58
2021/01/09 08:55:11;;;;;;;0.37;0.37;;;2.40;99.90;;;;;;4429974;32;20072;-58
2021/01/09 08:57:37;;;;;;;1.02;0.75;;;2.40;99.90;;;;;;4430797;32;20072;-57
2021/01/09 09:00:03;;;;;;;0.30;0.30;;;2.40;99.90;;;;;;4429664;32;20077;-54
2021/01/09 09:02:33;;;;;;;0.40;0.40;;;2.40;99.90;;;;;;4430189;32;20074;-57
2021/01/09 09:05:02;;;;;;;0.20;0.20;;;2.40;99.90;;;;;;4429389;32;20412;-57
2021/01/09 09:07:32;;;;;;;0.55;0.55;;;2.40;99.90;;;;;;4441952;32;20081;-57
2021/01/09 09:10:01;;;;;;;0.50;0.50;;;2.30;99.90;;;;;;4445036;32;20060;-57
2021/01/09 09:12:26;;;;;;;0.45;0.45;;;2.40;99.90;;;;;;4432937;32;20085;-57
2021/01/09 09:14:56;;;;;;;0.60;0.60;;;2.30;99.90;;;;;;4429750;32;20057;-58
2021/01/09 09:17:23;;;;;;;0.40;0.40;;;2.30;99.90;;;;;;4416029;32;20069;-58
2021/01/09 09:19:49;;;;;;;0.40;0.40;;;2.30;99.90;;;;;;4427735;32;20065;-55
2021/01/09 09:22:14;;;;;;;1.23;0.82;;;2.30;99.90;;;;;;4428009;32;20061;-58
2021/01/09 09:24:42;;;;;;;0.30;0.30;;;2.30;99.90;;;;;;4427402;32;20065;-55
2021/01/09 09:27:20;;;;;;;0.40;0.40;;;2.30;99.90;;;;;;4427871;32;20482;-58
2021/01/09 09:29:46;;;;;;;1.08;1.05;;;2.30;99.90;;;;;;4430143;32;20057;-56
2021/01/09 09:32:22;;;;;;;0.30;0.30;;;2.30;99.90;;;;;;4428864;32;20443;-57
2021/01/09 09:34:48;;;;;;;0.50;0.50;;;2.30;99.90;;;;;;4428983;32;20067;-56
2021/01/09 09:37:13;;;;;;;0.85;0.85;;;2.20;99.90;;;;;;4429298;32;20064;-56
2021/01/09 09:39:39;;;;;;;0.70;0.70;;;2.20;99.90;;;;;;4428643;32;20164;-55
2021/01/09 09:42:04;;;;;;;10.75;0.85;;;2.20;99.90;;;;;;4428523;32;20547;-57
2021/01/09 09:44:35;;;;;;;0.30;0.30;;;2.20;99.90;;;;;;4430181;32;20096;-56
2021/01/09 09:47:01;;;;;;;1.55;0.82;;;2.20;99.90;;;;;;4429140;32;20424;-55
2021/01/09 09:49:26;;;;;;;0.60;0.60;;;2.20;99.90;;;;;;4428363;32;20062;-57
2021/01/09 09:51:52;;;;;;;0.80;0.77;;;2.30;99.90;;;;;;4429118;32;20077;-56
2021/01/09 09:54:33;;;;;;;0.43;0.43;;;2.20;99.90;;;;;;4429270;32;20053;-53
2021/01/09 09:56:59;;;;;;;0.30;0.30;;;2.30;99.90;;;;;;4428487;32;20073;-53
2021/01/09 09:59:28;;;;;;;0.50;0.50;;;2.30;99.90;;;;;;4429246;32;20076;-54
2021/01/09 10:01:58;;;;;;;0.40;0.40;;;2.20;99.90;;;;;;4428653;32;20128;-56
2021/01/09 10:04:24;;;;;;;1.12;0.98;;;2.20;99.90;;;;;;4428667;32;20065;-56
2021/01/09 10:06:51;;;;;;;2.92;1.08;;;2.20;99.90;;;;;;4436807;32;20127;-56
2021/01/09 10:09:19;;;;;;;0.75;0.68;;;2.20;99.90;;;;;;4443773;32;20500;-53
2021/01/09 10:11:46;;;;;;;0.60;0.60;;;2.20;99.90;;;;;;4436277;32;20060;-55
2021/01/09 10:14:12;;;;;;;0.82;0.82;;;2.20;99.90;;;;;;4429534;32;20053;-57
2021/01/09 10:16:38;;;;;;;0.30;0.30;;;2.20;99.90;;;;;;4428965;32;20506;-55
2021/01/09 10:19:04;;;;;;;0.40;0.40;;;2.20;99.90;;;;;;4428523;32;20062;-58
2021/01/09 10:21:30;;;;;;;0.50;0.50;;;2.30;99.90;;;;;;4427161;32;20065;-58
2021/01/09 10:23:57;;;;;;;0.52;0.52;;;2.30;99.90;;;;;;4429451;32;20423;-57
2021/01/09 10:26:26;;;;;;;13.25;1.00;;;2.40;99.90;;;;;;4431085;32;20128;-57
2021/01/09 10:28:51;;;;;;;0.52;0.52;;;2.40;99.90;;;;;;4431159;32;20128;-57
2021/01/09 10:31:17;;;;;;;1.40;1.00;;;2.40;99.90;;;;;;4432159;32;20131;-58
2021/01/09 10:33:42;;;;;;;0.50;0.50;;;2.40;99.90;;;;;;4432249;32;20065;-55
2021/01/09 10:36:08;;;;;;;0.45;0.45;;;2.50;99.90;;;;;;4431170;32;20516;-57
2021/01/09 10:38:33;;;;;;;0.60;0.60;;;2.50;99.90;;;;;;4431272;32;20440;-55
2021/01/09 10:40:58;;;;;;;0.45;0.45;;;2.50;99.90;;;;;;4431698;32;20073;-56
2021/01/09 10:43:24;;;;;;;0.60;0.60;;;2.50;99.90;;;;;;4431300;32;20123;-57
2021/01/09 10:45:49;;;;;;;0.45;0.45;;;2.50;99.90;;;;;;4431809;32;20061;-54
2021/01/09 10:48:15;;;;;;;0.40;0.40;;;2.50;99.90;;;;;;4431527;32;20078;-53
2021/01/09 10:50:40;;;;;;;0.40;0.40;;;2.60;99.90;;;;;;4430360;32;20060;-57
2021/01/09 10:53:06;;;;;;;0.65;0.65;;;2.60;99.90;;;;;;4430799;32;20493;-55
2021/01/09 10:55:31;;;;;;;0.70;0.70;;;2.60;99.90;;;;;;4431531;32;20074;-56
2021/01/09 10:57:57;;;;;;;1.52;0.70;;;2.60;99.90;;;;;;4431803;32;20061;-57
2021/01/09 11:00:22;;;;;;;3.17;0.68;;;2.60;99.90;;;;;;4431278;32;20116;-56
2021/01/09 11:02:48;;;;;;;0.40;0.40;;;2.70;99.90;;;;;;4432058;32;20553;-57
2021/01/09 11:05:13;;;;;;;0.50;0.50;;;2.60;99.90;;;;;;4431291;32;20069;-56
2021/01/09 11:07:38;;;;;;;4.22;1.20;;;2.60;99.90;;;;;;4443235;32;20068;-58
2021/01/09 11:10:05;;;;;;;2.87;0.98;;;2.60;99.90;;;;;;4446167;32;20158;-58
2021/01/09 11:12:31;;;;;;;0.40;0.40;;;2.60;99.90;;;;;;4433836;32;20123;-58
2021/01/09 11:14:56;;;;;;;0.37;0.37;;;2.60;99.90;;;;;;4430567;32;20510;-58
2021/01/09 11:17:22;;;;;;;0.40;0.40;;;2.60;99.90;;;;;;4430983;32;20057;-55
2021/01/09 11:19:47;;;;;;;0.50;0.50;;;2.60;99.90;;;;;;4430418;32;20120;-57
2021/01/09 11:22:13;;;;;;;3.22;0.90;;;2.70;99.90;;;;;;4430369;32;20065;-58
2021/01/09 11:24:38;;;;;;;0.70;0.70;;;2.70;99.90;;;;;;4430180;32;20078;-59
2021/01/09 11:27:05;;;;;;;0.77;0.77;;;2.70;99.90;;;;;;4430220;32;20499;-58
2021/01/09 11:29:31;;;;;;;0.80;0.73;;;2.80;99.90;;;;;;4429281;32;20081;-58
2021/01/09 11:31:58;;;;;;;0.90;0.90;;;2.80;99.90;;;;;;4429600;32;20066;-59
2021/01/09 11:34:23;;;;;;;2.85;1.12;;;2.80;99.90;;;;;;4429817;32;20078;-57
2021/01/09 11:36:49;;;;;;;0.80;0.80;;;2.90;99.90;;;;;;4430409;32;20069;-58
2021/01/09 11:39:15;;;;;;;2.17;1.25;;;3.00;99.90;;;;;;4430651;32;20065;-59
2021/01/09 11:41:40;;;;;;;0.30;0.30;;;3.10;99.90;;;;;;4431193;32;20073;-56
2021/01/09 11:44:05;;;;;;;0.88;0.88;;;3.00;99.90;;;;;;4430061;32;20486;-57
2021/01/09 11:46:31;;;;;;;1.42;0.95;;;3.00;99.90;;;;;;4429604;32;20150;-56
2021/01/09 11:48:56;;;;;;;0.60;0.60;;;3.10;99.90;;;;;;4430458;32;20086;-55
2021/01/09 11:51:23;;;;;;;0.40;0.40;;;3.00;99.90;;;;;;4430467;32;20077;-58
2021/01/09 11:53:49;;;;;;;1.37;0.55;;;3.10;99.90;;;;;;4430241;32;20078;-57
2021/01/09 11:56:19;;;;;;;0.70;0.70;;;3.10;99.90;;;;;;4430587;32;20069;-58
2021/01/09 11:58:44;;;;;;;11.00;0.93;;;3.10;99.90;;;;;;4429952;32;20596;-54
2021/01/09 12:01:10;;;;;;;0.43;0.43;;;3.10;99.90;;;;;;4431000;32;20070;-54
2021/01/09 12:03:35;;;;;;;0.52;0.52;;;3.20;99.90;;;;;;4431204;32;20081;-54
2021/01/09 12:06:01;;;;;;;0.90;0.68;;;3.10;99.90;;;;;;4433169;32;20093;-57
2021/01/09 12:08:27;;;;;;;0.70;0.70;;;3.20;99.90;;;;;;4445621;32;20077;-59
2021/01/09 12:10:52;;;;;;;0.93;0.93;;;3.20;99.90;;;;;;4443122;32;20057;-55
2021/01/09 12:13:17;;;;;;;0.73;0.65;;;3.20;99.90;;;;;;4429452;32;20065;-58
2021/01/09 12:15:46;;;;;;;0.60;0.60;;;3.20;99.90;;;;;;4430614;32;20065;-58
2021/01/09 12:18:12;;;;;;;0.43;0.43;;;3.20;99.90;;;;;;4430504;32;20073;-59
2021/01/09 12:20:38;;;;;;;0.60;0.60;;;3.20;99.90;;;;;;4430157;32;20056;-56
2021/01/09 12:23:04;;;;;;;0.82;0.82;;;3.20;99.90;;;;;;4430237;32;20092;-58
2021/01/09 12:25:30;;;;;;;0.55;0.55;;;3.40;99.90;;;;;;4430786;32;20515;-56
2021/01/09 12:27:55;;;;;;;0.43;0.43;;;3.30;99.90;;;;;;4429360;32;20128;-59
2021/01/09 12:30:21;;;;;;;0.60;0.60;;;3.40;99.90;;;;;;4429767;32;20093;-58
2021/01/09 12:32:46;;;;;;;0.80;0.80;;;3.40;99.90;;;;;;4429698;32;20081;-58
2021/01/09 12:35:13;;;;;;;0.68;0.68;;;3.50;99.90;;;;;;4430442;32;20385;-54
2021/01/09 12:37:38;;;;;;;0.68;0.68;;;3.50;99.90;;;;;;4429593;32;20081;-59
2021/01/09 12:40:06;;;;;;;5.35;1.20;;;3.50;99.90;;;;;;4429666;32;20077;-58
2021/01/09 12:42:32;;;;;;;0.40;0.40;;;3.50;99.90;;;;;;4415329;32;20073;-54
2021/01/09 12:44:57;;;;;;;0.73;0.73;;;3.50;99.90;;;;;;4428872;32;20483;-58
2021/01/09 12:47:23;;;;;;;0.55;0.55;;;3.40;99.90;;;;;;4431533;32;20065;-55
2021/01/09 12:49:48;;;;;;;0.50;0.50;;;3.50;99.90;;;;;;4430220;32;20069;-58
2021/01/09 12:52:14;;;;;;;0.30;0.30;;;3.50;99.90;;;;;;4429664;32;20086;-59
2021/01/09 12:54:39;;;;;;;3.70;1.52;;;3.50;99.90;;;;;;4430146;32;20124;-59
2021/01/09 12:57:05;;;;;;;0.50;0.50;;;3.50;99.90;;;;;;4430377;32;20074;-57